createdAt,value
2022-09-30T00:02:25.000Z,19.7
2022-09-30T00:07:24.000Z,19.68
2022-09-30T00:12:25.000Z,20.09
2022-09-30T00:17:24.000Z,20.02
2022-09-30T00:22:25.000Z,20.28
2022-09-30T00:32:25.000Z,20.45
2022-09-30T00:37:24.000Z,19.68
2022-09-30T00:42:25.000Z,20.12
2022-09-30T00:47:24.000Z,21.17
2022-09-30T00:52:24.000Z,20.52
2022-09-30T00:57:24.000Z,20.72
2022-09-30T01:02:24.000Z,21.85
2022-09-30T01:07:25.000Z,21.33
2022-09-30T01:12:24.000Z,19.75
2022-09-30T01:17:24.000Z,19.38
2022-09-30T01:27:24.000Z,20.21
2022-09-30T01:32:25.000Z,18.96
2022-09-30T01:37:24.000Z,19.49
2022-09-30T01:42:25.000Z,19.43
2022-09-30T01:47:24.000Z,18.9
2022-09-30T01:52:24.000Z,19.62
2022-09-30T01:57:25.000Z,18.99
2022-09-30T02:02:25.000Z,18.2
2022-09-30T02:07:25.000Z,18.52
2022-09-30T02:12:24.000Z,18.62
2022-09-30T02:17:24.000Z,18.74
2022-09-30T02:22:25.000Z,18.71
2022-09-30T02:27:24.000Z,18.49
2022-09-30T02:32:25.000Z,18.54
2022-09-30T02:37:24.000Z,19.13
2022-09-30T02:42:24.000Z,18.81
2022-09-30T02:47:24.000Z,19.89
2022-09-30T02:52:24.000Z,19.86
2022-09-30T02:57:24.000Z,19.46
2022-09-30T03:02:24.000Z,19.17
2022-09-30T03:07:25.000Z,19.57
2022-09-30T03:12:24.000Z,20.05
2022-09-30T03:17:24.000Z,19.59
2022-09-30T03:22:24.000Z,19.69
2022-09-30T03:27:24.000Z,18.42
2022-09-30T03:32:25.000Z,18.7
2022-09-30T03:37:24.000Z,18.83
2022-09-30T03:42:24.000Z,18.61
2022-09-30T03:47:24.000Z,19.42
2022-09-30T03:52:25.000Z,18.96
2022-09-30T03:57:24.000Z,19.22
2022-09-30T04:02:25.000Z,18.35
2022-09-30T04:07:25.000Z,18.9
2022-09-30T04:12:24.000Z,17.89
2022-09-30T04:17:25.000Z,18.27
2022-09-30T04:22:24.000Z,17.41
2022-09-30T04:27:24.000Z,17.77
2022-09-30T04:32:24.000Z,17.86
2022-09-30T04:37:24.000Z,17.65
2022-09-30T04:42:24.000Z,18.03
2022-09-30T04:47:24.000Z,18.19
2022-09-30T04:52:24.000Z,18.65
2022-09-30T04:57:25.000Z,18.71
2022-09-30T05:02:24.000Z,18.84
2022-09-30T05:07:24.000Z,18.1
2022-09-30T05:12:24.000Z,18.24
2022-09-30T05:17:24.000Z,16.93
2022-09-30T05:22:25.000Z,16.89
2022-09-30T05:27:24.000Z,16.59
2022-09-30T05:32:24.000Z,17.06
2022-09-30T05:37:25.000Z,16.56
2022-09-30T05:42:25.000Z,16.65
2022-09-30T05:47:25.000Z,16.25
2022-09-30T05:52:25.000Z,15.75
2022-09-30T05:57:24.000Z,15.7
2022-09-30T06:02:24.000Z,15.41
2022-09-30T06:07:25.000Z,15.46
2022-09-30T06:17:25.000Z,15.47
2022-09-30T06:22:25.000Z,15.08
2022-09-30T06:32:25.000Z,15.41
2022-09-30T06:37:24.000Z,16.08
2022-09-30T06:42:25.000Z,16.34
2022-09-30T06:47:25.000Z,16.55
2022-09-30T06:52:24.000Z,16.74
2022-09-30T06:57:24.000Z,17.37
2022-09-30T07:02:24.000Z,17.23
2022-09-30T07:07:24.000Z,17.32
2022-09-30T07:12:24.000Z,17.48
2022-09-30T07:17:24.000Z,17.67
2022-09-30T07:22:24.000Z,17.75
2022-09-30T07:27:25.000Z,18.09
2022-09-30T07:32:25.000Z,18.39
2022-09-30T07:37:24.000Z,19.27
2022-09-30T07:42:24.000Z,18.76
2022-09-30T07:47:24.000Z,18.49
2022-09-30T07:52:25.000Z,19.29
2022-09-30T07:57:25.000Z,18.3
2022-09-30T08:02:25.000Z,18.42
2022-09-30T08:07:25.000Z,18.44
2022-09-30T08:12:25.000Z,18.39
2022-09-30T08:17:24.000Z,18.59
2022-09-30T08:22:24.000Z,17.53
2022-09-30T08:27:25.000Z,16.94
2022-09-30T08:32:24.000Z,17.27
2022-09-30T08:37:24.000Z,16.7
2022-09-30T08:42:24.000Z,16.13
2022-09-30T08:47:24.000Z,15.45
2022-09-30T08:52:24.000Z,16.24
2022-09-30T08:57:24.000Z,16.09
2022-09-30T09:02:25.000Z,16.31
2022-09-30T09:07:24.000Z,16.69
2022-09-30T09:12:24.000Z,18.02
2022-09-30T09:17:25.000Z,18.01
2022-09-30T09:22:25.000Z,19.19
2022-09-30T09:27:25.000Z,19.04
2022-09-30T09:32:25.000Z,18.95
2022-09-30T09:37:24.000Z,19.69
2022-09-30T09:42:25.000Z,18.82
2022-09-30T09:47:24.000Z,18.18
2022-09-30T09:52:25.000Z,18.02
2022-09-30T09:57:25.000Z,17.98
2022-09-30T10:07:25.000Z,16.03
2022-09-30T10:12:24.000Z,16.15
2022-09-30T10:17:25.000Z,15.82
2022-09-30T10:22:25.000Z,15.02
2022-09-30T10:27:24.000Z,15.22
2022-09-30T10:32:24.000Z,14.78
2022-09-30T10:37:24.000Z,15.15
2022-09-30T10:42:25.000Z,14.74
2022-09-30T10:47:24.000Z,15.02
2022-09-30T10:52:24.000Z,14.63
2022-09-30T10:57:24.000Z,14.49
2022-09-30T11:02:25.000Z,14.86
2022-09-30T11:07:24.000Z,15
2022-09-30T11:12:24.000Z,14.95
2022-09-30T11:17:24.000Z,14.73
2022-09-30T11:22:25.000Z,14.52
2022-09-30T11:27:24.000Z,14.4
2022-09-30T11:32:24.000Z,14.88
2022-09-30T11:37:24.000Z,14.99
2022-09-30T11:42:24.000Z,14.21
2022-09-30T11:47:24.000Z,14.47
2022-09-30T11:52:24.000Z,14.56
2022-09-30T12:02:24.000Z,13.89
2022-09-30T12:07:24.000Z,14.6
2022-09-30T12:12:24.000Z,13.62
2022-09-30T12:17:24.000Z,14.2
2022-09-30T12:22:25.000Z,14.36
2022-09-30T12:27:24.000Z,14.02
2022-09-30T12:32:24.000Z,14.06
2022-09-30T12:37:24.000Z,14.3
2022-09-30T12:42:25.000Z,14.33
2022-09-30T12:47:24.000Z,14.93
2022-09-30T12:52:25.000Z,15.21
2022-09-30T12:57:24.000Z,15.18
2022-09-30T13:02:25.000Z,16.17
2022-09-30T13:07:24.000Z,15.19
2022-09-30T13:12:25.000Z,15.98
2022-09-30T13:17:25.000Z,15.55
2022-09-30T13:22:25.000Z,15.65
2022-09-30T13:27:25.000Z,16.19
2022-09-30T13:32:25.000Z,15.78
2022-09-30T13:37:25.000Z,16.13
2022-09-30T13:42:24.000Z,16.02
2022-09-30T13:47:25.000Z,16.19
2022-09-30T13:52:24.000Z,16.02
2022-09-30T13:57:24.000Z,16.18
2022-09-30T14:02:24.000Z,16.77
2022-09-30T14:07:24.000Z,16.61
2022-09-30T14:12:24.000Z,17.06
2022-09-30T14:17:25.000Z,16.87
2022-09-30T14:22:25.000Z,17.09
2022-09-30T14:27:25.000Z,17.02
2022-09-30T14:32:24.000Z,17.54
2022-09-30T14:37:24.000Z,17.66
2022-09-30T14:42:24.000Z,18.26
2022-09-30T14:47:24.000Z,18.37
2022-09-30T14:52:24.000Z,18.6
2022-09-30T14:57:24.000Z,18.71
2022-09-30T15:02:25.000Z,19.02
2022-09-30T15:07:24.000Z,20.05
2022-09-30T15:12:25.000Z,19.89
2022-09-30T15:17:25.000Z,20.11
2022-09-30T15:27:24.000Z,19.71
2022-09-30T15:32:24.000Z,19.83
2022-09-30T15:37:24.000Z,19.66
2022-09-30T15:42:24.000Z,19.17
2022-09-30T15:47:24.000Z,19.15
2022-09-30T15:52:24.000Z,18.59
2022-09-30T15:57:24.000Z,19.53
2022-09-30T16:02:25.000Z,19.81
2022-09-30T16:07:24.000Z,19.13
2022-09-30T16:12:25.000Z,18.88
2022-09-30T16:17:25.000Z,18.9
2022-09-30T16:22:24.000Z,19.01
2022-09-30T16:27:24.000Z,19
2022-09-30T16:32:24.000Z,19.48
2022-09-30T16:37:24.000Z,19.81
2022-09-30T16:42:24.000Z,19.23
2022-09-30T16:47:24.000Z,20.18
2022-09-30T16:52:25.000Z,19.77
2022-09-30T16:57:25.000Z,20.86
2022-09-30T17:02:24.000Z,20.58
2022-09-30T17:07:24.000Z,21.04
2022-09-30T17:12:24.000Z,21.67
2022-09-30T17:22:24.000Z,22.15
2022-09-30T17:27:24.000Z,22.36
2022-09-30T17:32:24.000Z,22.16
2022-09-30T17:37:24.000Z,22.75
2022-09-30T17:42:25.000Z,22.76
2022-09-30T17:47:24.000Z,22.71
2022-09-30T17:52:24.000Z,22.7
2022-09-30T17:57:24.000Z,23.36
2022-09-30T18:02:24.000Z,23.44
2022-09-30T18:07:24.000Z,23.5
2022-09-30T18:12:24.000Z,23.9
2022-09-30T18:17:24.000Z,23.48
2022-09-30T18:22:24.000Z,23.5
2022-09-30T18:27:24.000Z,23.64
2022-09-30T18:32:24.000Z,25.4
2022-09-30T18:37:25.000Z,26.18
2022-09-30T18:42:24.000Z,25.84
2022-09-30T18:47:24.000Z,25.44
2022-09-30T18:52:24.000Z,25.35
2022-09-30T18:57:25.000Z,25.81
2022-09-30T19:02:24.000Z,25.6
2022-09-30T19:07:24.000Z,25.07
2022-09-30T19:12:24.000Z,24.68
2022-09-30T19:17:24.000Z,24.47
2022-09-30T19:22:25.000Z,23.9
2022-09-30T19:27:24.000Z,24.36
2022-09-30T19:32:24.000Z,24.14
2022-09-30T19:37:24.000Z,24.72
2022-09-30T19:47:24.000Z,24.77
2022-09-30T19:52:25.000Z,25.14
2022-09-30T19:57:24.000Z,25.11
2022-09-30T20:02:24.000Z,24.08
2022-09-30T20:07:24.000Z,23.57
2022-09-30T20:12:24.000Z,23.76
2022-09-30T20:17:25.000Z,24.92
2022-09-30T20:22:24.000Z,23.4
2022-09-30T20:27:24.000Z,23.5
2022-09-30T20:32:24.000Z,23.25
2022-09-30T20:37:25.000Z,22.74
2022-09-30T20:42:25.000Z,22.69
2022-09-30T20:47:24.000Z,22.32
2022-09-30T20:57:24.000Z,22.4
2022-09-30T21:02:24.000Z,22.38
2022-09-30T21:12:24.000Z,22.23
2022-09-30T21:17:24.000Z,21.71
2022-09-30T21:22:25.000Z,22.45
2022-09-30T21:27:24.000Z,21.92
2022-09-30T21:32:24.000Z,21.7
2022-09-30T21:37:25.000Z,21.66
2022-09-30T21:42:24.000Z,21.71
2022-09-30T21:47:24.000Z,21.69
2022-09-30T21:52:24.000Z,21.79
2022-09-30T21:57:24.000Z,22.12
2022-09-30T22:02:25.000Z,22.88
2022-09-30T22:07:25.000Z,22.74
2022-09-30T22:12:24.000Z,22.89
2022-09-30T22:17:25.000Z,23.7
2022-09-30T22:22:24.000Z,24.59
2022-09-30T22:27:24.000Z,24.91
2022-09-30T22:32:24.000Z,23.84
2022-09-30T22:37:25.000Z,23.56
2022-09-30T22:42:25.000Z,23.6
2022-09-30T22:47:24.000Z,23.55
2022-09-30T22:52:24.000Z,23.09
2022-09-30T22:57:25.000Z,22.55
2022-09-30T23:02:25.000Z,22.9
2022-09-30T23:07:25.000Z,22.24
2022-09-30T23:12:24.000Z,22.17
2022-09-30T23:17:24.000Z,22.43
2022-09-30T23:22:24.000Z,22.53
2022-09-30T23:27:24.000Z,22.39
2022-09-30T23:32:24.000Z,23.17
2022-09-30T23:37:24.000Z,22.23
2022-09-30T23:42:24.000Z,21.86
2022-09-30T23:47:24.000Z,22.49
2022-09-30T23:52:24.000Z,22.05
2022-09-30T23:57:24.000Z,22.02
